createdAt,value
2019-05-20T00:00:31.159Z,4.73
2019-05-20T00:03:01.824Z,4.97
2019-05-20T00:05:32.407Z,4.43
2019-05-20T00:08:03.211Z,4.57
2019-05-20T00:10:33.772Z,4.47
2019-05-20T00:13:04.335Z,4.47
2019-05-20T00:15:35.023Z,4.57
2019-05-20T00:18:05.589Z,4.40
2019-05-20T00:20:36.161Z,4.50
2019-05-20T00:23:06.733Z,4.97
2019-05-20T00:25:37.275Z,4.43
2019-05-20T00:28:07.825Z,5.30
2019-05-20T00:30:38.413Z,4.60
2019-05-20T00:33:09.117Z,5.30
2019-05-20T00:35:39.720Z,4.93
2019-05-20T00:38:10.298Z,5.27
2019-05-20T00:40:40.851Z,5.03
2019-05-20T00:43:12.383Z,4.83
2019-05-20T00:45:42.959Z,4.90
2019-05-20T00:48:13.520Z,5.77
2019-05-20T00:50:44.095Z,6.10
2019-05-20T00:53:14.650Z,4.83
2019-05-20T00:55:45.359Z,5.17
2019-05-20T00:58:16.017Z,5.90
2019-05-20T01:00:46.645Z,5.30
2019-05-20T01:03:18.274Z,4.80
2019-05-20T01:05:48.933Z,4.60
2019-05-20T01:08:19.502Z,6.37
2019-05-20T01:10:50.066Z,6.87
2019-05-20T01:13:22.034Z,6.70
2019-05-20T01:15:52.615Z,6.50
2019-05-20T01:18:23.174Z,6.13
2019-05-20T01:20:56.511Z,6.83
2019-05-20T01:23:27.102Z,6.40
2019-05-20T01:25:58.081Z,5.70
2019-05-20T01:28:28.662Z,6.27
2019-05-20T01:30:59.245Z,7.43
2019-05-20T01:33:29.825Z,7.47
2019-05-20T01:36:01.837Z,6.90
2019-05-20T01:38:33.453Z,6.60
2019-05-20T01:41:04.013Z,6.63
2019-05-20T01:43:34.588Z,7.27
2019-05-20T01:46:06.236Z,7.23
2019-05-20T01:48:36.814Z,7.37
2019-05-20T01:51:07.549Z,7.27
2019-05-20T01:53:38.134Z,7.27
2019-05-20T01:56:08.707Z,7.93
2019-05-20T01:58:39.814Z,8.73
2019-05-20T02:01:10.507Z,8.60
2019-05-20T02:03:41.071Z,8.80
2019-05-20T02:06:11.634Z,9.40
2019-05-20T02:08:42.200Z,10.37
2019-05-20T02:11:12.779Z,10.17
2019-05-20T02:13:44.993Z,9.93
2019-05-20T02:16:16.072Z,10.83
2019-05-20T02:18:46.927Z,10.10
2019-05-20T02:21:17.605Z,9.60
2019-05-20T02:23:48.246Z,10.67
2019-05-20T02:26:18.878Z,11.73
2019-05-20T02:28:49.454Z,10.57
2019-05-20T02:31:20.038Z,10.17
2019-05-20T02:33:52.757Z,9.53
2019-05-20T02:36:22.894Z,10.27
2019-05-20T02:38:53.496Z,10.53
2019-05-20T02:41:24.055Z,11.10
2019-05-20T02:43:54.674Z,9.87
2019-05-20T02:46:25.411Z,9.87
2019-05-20T02:48:56.062Z,10.80
2019-05-20T02:51:32.798Z,11.43
2019-05-20T02:54:03.562Z,10.47
2019-05-20T02:56:34.159Z,11.13
2019-05-20T02:59:05.383Z,10.50
2019-05-20T03:01:35.927Z,10.30
2019-05-20T03:04:12.018Z,10.13
2019-05-20T03:06:38.947Z,10.63
2019-05-20T03:09:12.178Z,10.63
2019-05-20T03:11:42.088Z,10.50
2019-05-20T03:14:12.653Z,11.93
2019-05-20T03:16:43.225Z,11.07
2019-05-20T03:19:13.910Z,10.87
2019-05-20T03:21:44.676Z,11.23
2019-05-20T03:24:15.249Z,11.43
2019-05-20T03:26:45.965Z,11.07
2019-05-20T03:29:16.589Z,11.80
2019-05-20T03:31:47.199Z,11.53
2019-05-20T03:34:42.392Z,10.27
2019-05-20T03:36:50.176Z,10.60
2019-05-20T03:39:20.750Z,11.90
2019-05-20T03:41:51.338Z,11.07
2019-05-20T03:44:21.912Z,11.97
2019-05-20T03:46:52.496Z,11.50
2019-05-20T03:49:23.071Z,10.63
2019-05-20T03:51:53.660Z,19.77
2019-05-20T03:54:24.256Z,12.00
2019-05-20T03:56:54.914Z,10.43
2019-05-20T03:59:25.537Z,10.77
2019-05-20T04:01:56.077Z,11.67
2019-05-20T04:04:26.656Z,10.80
2019-05-20T04:06:57.239Z,11.63
2019-05-20T04:09:28.047Z,11.07
2019-05-20T04:11:59.022Z,12.00
2019-05-20T04:14:29.593Z,10.60
2019-05-20T04:17:00.188Z,11.93
2019-05-20T04:19:30.893Z,11.73
2019-05-20T04:22:01.562Z,10.90
2019-05-20T04:24:32.333Z,10.60
2019-05-20T04:27:02.944Z,10.23
2019-05-20T04:29:33.641Z,10.13
2019-05-20T04:32:04.248Z,9.33
2019-05-20T04:34:34.822Z,9.83
2019-05-20T04:37:05.403Z,9.70
2019-05-20T04:39:35.968Z,9.60
2019-05-20T04:42:07.183Z,9.77
2019-05-20T04:44:38.018Z,9.10
2019-05-20T04:47:08.569Z,10.17
2019-05-20T04:49:39.149Z,9.70
2019-05-20T04:52:09.729Z,10.27
2019-05-20T04:54:40.317Z,9.73
2019-05-20T04:57:11.153Z,8.90
2019-05-20T04:59:41.726Z,9.57
2019-05-20T05:02:12.305Z,9.20
2019-05-20T05:04:43.055Z,8.80
2019-05-20T05:07:13.772Z,8.97
2019-05-20T05:09:44.481Z,10.37
2019-05-20T05:12:16.742Z,8.30
2019-05-20T05:14:47.940Z,8.50
2019-05-20T05:17:18.680Z,8.90
2019-05-20T05:19:49.389Z,8.53
2019-05-20T05:22:20.578Z,7.60
2019-05-20T05:24:51.716Z,8.57
2019-05-20T05:27:23.456Z,8.87
2019-05-20T05:29:54.779Z,8.40
2019-05-20T05:32:44.687Z,8.27
2019-05-20T05:35:17.319Z,8.10
2019-05-20T05:37:48.969Z,8.67
2019-05-20T05:40:23.420Z,9.00
2019-05-20T05:42:54.701Z,10.00
2019-05-20T05:45:35.342Z,9.87
2019-05-20T05:48:06.202Z,9.93
2019-05-20T05:50:36.838Z,9.73
2019-05-20T05:53:07.413Z,9.63
2019-05-20T05:55:37.993Z,10.57
2019-05-20T05:58:08.996Z,10.43
2019-05-20T06:00:40.305Z,11.60
2019-05-20T06:03:10.965Z,10.90
2019-05-20T06:05:41.579Z,11.22
2019-05-20T06:08:12.240Z,11.38
2019-05-20T06:10:42.865Z,11.78
2019-05-20T06:13:13.643Z,10.70
2019-05-20T06:15:44.324Z,9.85
2019-05-20T06:18:14.932Z,11.60
2019-05-20T06:20:45.607Z,10.88
2019-05-20T06:23:16.711Z,10.70
2019-05-20T06:25:47.291Z,10.68
2019-05-20T06:28:17.939Z,11.60
2019-05-20T06:30:48.601Z,11.18
2019-05-20T06:33:19.203Z,11.40
2019-05-20T06:35:49.858Z,10.78
2019-05-20T06:38:34.428Z,11.70
2019-05-20T06:41:07.066Z,10.03
2019-05-20T06:43:37.647Z,11.03
2019-05-20T06:46:08.253Z,10.93
2019-05-20T06:48:38.916Z,11.15
2019-05-20T06:51:09.525Z,9.68
2019-05-20T06:53:41.199Z,9.48
2019-05-20T06:56:11.884Z,9.98
2019-05-20T06:58:42.462Z,10.43
2019-05-20T07:01:13.048Z,11.03
2019-05-20T07:03:43.827Z,10.78
2019-05-20T07:06:14.393Z,9.70
2019-05-20T07:08:44.980Z,10.43
2019-05-20T07:11:15.575Z,10.63
2019-05-20T07:13:46.151Z,9.25
2019-05-20T07:16:16.728Z,10.03
2019-05-20T07:18:48.672Z,9.58
2019-05-20T07:21:19.245Z,10.80
2019-05-20T07:23:52.410Z,9.10
2019-05-20T07:26:22.203Z,8.88
2019-05-20T07:28:53.721Z,9.13
2019-05-20T07:31:24.341Z,9.25
2019-05-20T07:33:54.976Z,9.33
2019-05-20T07:36:25.778Z,9.53
2019-05-20T07:38:56.534Z,9.90
2019-05-20T07:41:27.125Z,10.48
2019-05-20T07:43:57.721Z,10.03
2019-05-20T07:46:28.542Z,11.03
2019-05-20T07:49:00.051Z,11.03
2019-05-20T07:51:31.089Z,10.98
2019-05-20T07:54:03.154Z,11.27
2019-05-20T07:56:37.350Z,12.17
2019-05-20T07:59:11.615Z,11.93
2019-05-20T08:01:43.394Z,13.67
2019-05-20T08:04:14.246Z,14.10
2019-05-20T08:06:45.873Z,14.50
2019-05-20T08:09:16.988Z,15.80
2019-05-20T08:11:47.660Z,15.40
2019-05-20T08:14:18.765Z,14.77
2019-05-20T08:16:49.650Z,15.00
2019-05-20T08:19:20.454Z,14.73
2019-05-20T08:21:51.439Z,15.40
2019-05-20T08:24:23.556Z,15.43
2019-05-20T08:26:54.252Z,16.10
2019-05-20T08:29:25.215Z,16.20
2019-05-20T08:31:56.597Z,15.30
2019-05-20T08:34:27.551Z,15.47
2019-05-20T08:36:58.338Z,14.57
2019-05-20T08:39:29.280Z,15.63
2019-05-20T08:42:00.243Z,15.27
2019-05-20T08:44:31.341Z,15.73
2019-05-20T08:47:02.168Z,16.43
2019-05-20T08:49:32.953Z,16.80
2019-05-20T08:52:03.606Z,16.60
2019-05-20T08:54:34.460Z,14.73
2019-05-20T08:57:05.134Z,16.03
2019-05-20T08:59:35.747Z,16.10
2019-05-20T09:02:06.383Z,15.87
2019-05-20T09:04:37.181Z,15.40
2019-05-20T09:07:08.722Z,17.50
2019-05-20T09:09:39.475Z,15.87
2019-05-20T09:12:10.090Z,16.97
2019-05-20T09:14:40.808Z,17.03
2019-05-20T09:17:13.155Z,14.93
2019-05-20T09:19:46.830Z,16.10
2019-05-20T09:22:15.998Z,16.00
2019-05-20T09:24:46.724Z,16.43
2019-05-20T09:27:18.625Z,17.63
2019-05-20T09:29:49.502Z,16.50
2019-05-20T09:32:20.299Z,15.90
2019-05-20T09:34:50.948Z,17.10
2019-05-20T09:37:21.671Z,17.03
2019-05-20T09:39:52.456Z,16.10
2019-05-20T09:42:24.234Z,18.63
2019-05-20T09:44:54.808Z,15.90
2019-05-20T09:47:25.501Z,18.33
2019-05-20T09:49:56.079Z,18.70
2019-05-20T09:52:26.741Z,19.07
2019-05-20T09:54:57.432Z,17.10
2019-05-20T09:57:29.330Z,17.13
2019-05-20T09:59:59.870Z,17.40
2019-05-20T10:02:34.522Z,19.00
2019-05-20T10:05:03.220Z,19.37
2019-05-20T10:07:34.286Z,19.53
2019-05-20T10:10:08.033Z,17.60
2019-05-20T10:12:46.230Z,18.37
2019-05-20T10:15:11.171Z,17.67
2019-05-20T10:17:41.742Z,17.60
2019-05-20T10:20:12.863Z,18.70
2019-05-20T10:22:43.556Z,17.83
2019-05-20T10:25:14.455Z,16.47
2019-05-20T10:27:45.061Z,18.63
2019-05-20T10:30:17.154Z,17.33
2019-05-20T10:32:47.743Z,18.33
2019-05-20T10:35:18.376Z,18.10
2019-05-20T10:37:48.956Z,17.80
2019-05-20T10:40:19.612Z,18.40
2019-05-20T10:42:50.644Z,18.17
2019-05-20T10:45:21.281Z,16.97
2019-05-20T10:47:51.879Z,17.50
2019-05-20T10:50:22.962Z,18.40
2019-05-20T10:52:53.555Z,17.47
2019-05-20T10:55:24.166Z,16.83
2019-05-20T10:57:55.765Z,16.30
2019-05-20T11:00:29.136Z,19.13
2019-05-20T11:02:59.720Z,17.23
2019-05-20T11:05:30.293Z,18.43
2019-05-20T11:08:00.876Z,17.93
2019-05-20T11:10:31.558Z,17.30
2019-05-20T11:13:02.294Z,16.63
2019-05-20T11:15:32.925Z,18.77
2019-05-20T11:18:03.629Z,16.23
2019-05-20T11:20:34.345Z,16.43
2019-05-20T11:23:04.953Z,15.67
2019-05-20T11:25:35.711Z,15.90
2019-05-20T11:28:06.284Z,16.33
2019-05-20T11:30:36.892Z,15.30
2019-05-20T11:33:07.587Z,16.13
2019-05-20T11:35:38.178Z,14.73
2019-05-20T11:38:08.780Z,15.90
2019-05-20T11:40:40.287Z,14.50
2019-05-20T11:43:10.866Z,15.53
2019-05-20T11:45:44.764Z,16.77
2019-05-20T11:48:15.338Z,15.37
2019-05-20T11:50:45.912Z,17.73
2019-05-20T11:53:16.566Z,17.30
2019-05-20T11:55:47.218Z,15.30
2019-05-20T11:58:18.115Z,17.63
2019-05-20T12:00:48.861Z,16.37
2019-05-20T12:03:20.640Z,16.30
2019-05-20T12:05:51.339Z,16.37
2019-05-20T12:08:21.909Z,16.37
2019-05-20T12:10:52.497Z,15.72
2019-05-20T12:13:23.081Z,15.60
2019-05-20T12:15:53.847Z,15.83
2019-05-20T12:18:24.519Z,15.50
2019-05-20T12:20:55.100Z,15.55
2019-05-20T12:23:25.684Z,16.15
2019-05-20T12:25:56.272Z,16.73
2019-05-20T12:28:26.958Z,17.30
2019-05-20T12:30:57.564Z,17.15
2019-05-20T12:33:28.181Z,16.93
2019-05-20T12:35:58.767Z,16.85
2019-05-20T12:38:30.065Z,18.25
2019-05-20T12:41:00.703Z,16.48
2019-05-20T12:43:31.319Z,15.78
2019-05-20T12:46:02.013Z,21.00
2019-05-20T12:48:33.762Z,17.57
2019-05-20T12:51:04.366Z,18.42
2019-05-20T12:53:35.092Z,15.40
2019-05-20T12:56:05.655Z,17.65
2019-05-20T12:58:36.251Z,14.87
2019-05-20T13:01:06.960Z,14.20
2019-05-20T13:03:37.603Z,15.00
2019-05-20T13:06:09.690Z,14.43
2019-05-20T13:08:40.271Z,15.03
2019-05-20T13:11:10.856Z,18.60
2019-05-20T13:13:41.436Z,14.87
2019-05-20T13:16:12.021Z,14.45
2019-05-20T13:18:55.039Z,17.12
2019-05-20T13:21:14.898Z,13.60
2019-05-20T13:23:48.775Z,13.70
2019-05-20T13:26:18.101Z,15.43
2019-05-20T13:28:50.924Z,15.15
2019-05-20T13:31:21.996Z,17.70
2019-05-20T13:33:53.757Z,15.95
2019-05-20T13:36:24.334Z,15.35
2019-05-20T13:38:55.206Z,15.35
2019-05-20T13:41:26.015Z,13.05
2019-05-20T13:43:56.600Z,13.28
2019-05-20T13:46:27.578Z,14.30
2019-05-20T13:48:58.274Z,12.88
2019-05-20T13:51:29.100Z,13.73
2019-05-20T13:53:59.822Z,14.33
2019-05-20T13:56:30.440Z,14.40
2019-05-20T13:59:01.015Z,14.38
2019-05-20T14:01:31.624Z,13.88
2019-05-20T14:04:02.260Z,15.43
2019-05-20T14:06:32.843Z,13.15
2019-05-20T14:09:07.596Z,12.70
2019-05-20T14:11:38.054Z,11.05
2019-05-20T14:14:08.725Z,10.78
2019-05-20T14:16:39.501Z,10.20
2019-05-20T14:19:10.282Z,10.43
2019-05-20T14:21:41.080Z,10.38
2019-05-20T14:24:12.052Z,12.07
2019-05-20T14:26:43.841Z,11.63
2019-05-20T14:29:14.824Z,12.05
2019-05-20T14:31:45.543Z,11.83
2019-05-20T14:34:16.129Z,13.00
2019-05-20T14:36:46.710Z,11.20
2019-05-20T14:39:18.173Z,9.37
2019-05-20T14:41:48.968Z,8.83
2019-05-20T14:44:19.507Z,9.10
2019-05-20T14:46:50.394Z,7.77
2019-05-20T14:49:20.948Z,8.67
2019-05-20T14:51:51.549Z,8.93
2019-05-20T14:54:22.206Z,6.53
2019-05-20T14:56:52.808Z,5.87
2019-05-20T14:59:23.709Z,5.67
2019-05-20T15:01:54.406Z,5.97
2019-05-20T15:04:25.005Z,6.03
2019-05-20T15:06:55.618Z,5.20
2019-05-20T15:09:26.648Z,5.23
2019-05-20T15:11:57.319Z,4.57
2019-05-20T15:17:06.115Z,4.03
2019-05-20T15:19:37.152Z,4.53
2019-05-20T15:22:07.804Z,3.93
2019-05-20T15:24:38.465Z,3.93
2019-05-20T15:27:09.043Z,3.70
2019-05-20T15:29:39.937Z,3.40
2019-05-20T15:32:10.608Z,3.63
2019-05-20T15:34:41.189Z,3.60
2019-05-20T15:37:11.833Z,3.37
2019-05-20T15:39:42.403Z,3.70
2019-05-20T15:42:13.370Z,3.30
2019-05-20T15:44:43.962Z,3.03
2019-05-20T15:47:18.136Z,3.50
2019-05-20T15:49:46.827Z,3.20
2019-05-20T15:52:17.404Z,3.23
2019-05-20T15:54:47.996Z,2.47
2019-05-20T15:57:18.583Z,2.07
2019-05-20T15:59:49.158Z,2.60
2019-05-20T16:02:19.778Z,2.40
2019-05-20T16:04:50.447Z,2.03
2019-05-20T16:07:21.245Z,1.17
2019-05-20T16:09:53.406Z,1.50
2019-05-20T16:12:23.920Z,1.43
2019-05-20T16:14:54.966Z,1.50
2019-05-20T16:17:25.665Z,1.10
2019-05-20T16:19:56.269Z,1.30
2019-05-20T16:22:26.859Z,1.30
2019-05-20T16:24:59.199Z,1.43
2019-05-20T16:27:32.775Z,1.90
2019-05-20T16:30:06.993Z,1.80
2019-05-20T16:32:36.414Z,1.73
2019-05-20T16:35:07.644Z,1.47
2019-05-20T16:37:39.922Z,1.90
2019-05-20T16:40:11.512Z,1.43
2019-05-20T16:42:42.838Z,6.67
2019-05-20T16:45:15.050Z,7.17
2019-05-20T16:47:45.638Z,7.50
2019-05-20T16:50:16.873Z,7.17
2019-05-20T16:52:47.489Z,5.30
2019-05-20T16:55:18.196Z,6.37
2019-05-20T16:57:49.129Z,2.37
2019-05-20T17:00:31.555Z,1.70
2019-05-20T17:02:52.858Z,2.10
2019-05-20T17:05:23.410Z,2.63
2019-05-20T17:07:53.980Z,2.40
2019-05-20T17:10:24.539Z,1.60
2019-05-20T17:12:55.606Z,2.03
2019-05-20T17:15:26.221Z,1.43
2019-05-20T17:17:57.003Z,1.73
2019-05-20T17:20:27.594Z,3.17
2019-05-20T17:22:58.678Z,2.67
2019-05-20T17:25:29.446Z,2.83
2019-05-20T17:28:01.000Z,2.30
2019-05-20T17:30:44.488Z,2.27
2019-05-20T17:33:04.227Z,2.40
2019-05-20T17:35:34.827Z,1.97
2019-05-20T17:38:05.952Z,2.10
2019-05-20T17:40:38.274Z,2.13
2019-05-20T17:43:09.943Z,2.30
2019-05-20T17:45:40.534Z,2.43
2019-05-20T17:48:11.494Z,2.47
2019-05-20T17:50:43.447Z,3.47
2019-05-20T17:53:14.008Z,2.73
2019-05-20T17:55:44.924Z,3.67
2019-05-20T17:58:17.137Z,3.60
2019-05-20T18:00:47.975Z,5.37
2019-05-20T18:03:18.557Z,5.20
2019-05-20T18:05:49.163Z,6.33
2019-05-20T18:08:20.843Z,9.00
2019-05-20T18:10:51.458Z,9.73
2019-05-20T18:13:22.141Z,10.87
2019-05-20T18:15:52.736Z,9.33
2019-05-20T18:18:23.655Z,11.93
2019-05-20T18:20:56.488Z,18.87
2019-05-20T18:23:26.470Z,19.33
2019-05-20T18:25:57.060Z,9.60
2019-05-20T18:28:28.227Z,6.10
2019-05-20T18:31:00.224Z,6.33
2019-05-20T18:33:30.900Z,4.60
2019-05-20T18:36:03.590Z,4.37
2019-05-20T18:38:34.186Z,4.33
2019-05-20T18:41:04.913Z,4.03
2019-05-20T18:43:36.332Z,3.90
2019-05-20T18:46:07.766Z,4.00
2019-05-20T18:48:38.425Z,4.53
2019-05-20T18:51:09.297Z,4.27
2019-05-20T18:53:40.453Z,4.93
2019-05-20T18:56:11.160Z,9.67
2019-05-20T18:58:41.895Z,25.87
2019-05-20T19:01:14.332Z,166.10
2019-05-20T19:03:45.157Z,473.10
2019-05-20T19:06:15.800Z,293.33
2019-05-20T19:08:46.569Z,262.63
2019-05-20T19:11:17.188Z,127.20
2019-05-20T19:13:47.881Z,63.50
2019-05-20T19:16:18.957Z,46.33
2019-05-20T19:18:49.723Z,71.47
2019-05-20T19:21:21.298Z,59.20
2019-05-20T19:23:51.945Z,87.23
2019-05-20T19:26:25.500Z,57.00
2019-05-20T19:28:58.351Z,32.37
2019-05-20T19:31:29.383Z,29.67
2019-05-20T19:34:01.967Z,35.77
2019-05-20T19:36:35.669Z,55.50
2019-05-20T19:39:08.389Z,32.57
2019-05-20T19:41:40.741Z,30.23
2019-05-20T19:44:13.498Z,32.87
2019-05-20T19:46:46.482Z,27.80
2019-05-20T19:49:17.555Z,22.23
2019-05-20T19:51:49.436Z,21.10
2019-05-20T19:54:20.368Z,19.80
2019-05-20T19:56:51.239Z,17.93
2019-05-20T19:59:24.523Z,16.00
2019-05-20T20:01:55.358Z,19.70
2019-05-20T20:04:26.021Z,14.30
2019-05-20T20:06:56.723Z,10.30
2019-05-20T20:09:27.911Z,8.57
2019-05-20T20:11:58.568Z,8.67
2019-05-20T20:14:30.483Z,8.67
2019-05-20T20:17:01.187Z,9.73
2019-05-20T20:19:31.884Z,13.63
2019-05-20T20:22:02.548Z,10.53
2019-05-20T20:24:33.264Z,9.53
2019-05-20T20:27:03.945Z,9.03
2019-05-20T20:29:34.604Z,8.60
2019-05-20T20:32:05.179Z,8.27
2019-05-20T20:34:35.874Z,12.57
2019-05-20T20:37:06.523Z,13.50
2019-05-20T20:39:37.576Z,10.17
2019-05-20T20:42:08.330Z,7.03
2019-05-20T20:44:38.936Z,7.40
2019-05-20T20:47:09.651Z,5.83
2019-05-20T20:49:40.777Z,6.27
2019-05-20T20:52:11.522Z,5.57
2019-05-20T20:54:42.100Z,5.13
2019-05-20T20:57:12.812Z,5.37
2019-05-20T20:59:43.463Z,8.43
2019-05-20T21:02:14.176Z,6.23
2019-05-20T21:04:44.867Z,7.03
2019-05-20T21:07:15.538Z,5.90
2019-05-20T21:09:46.097Z,5.93
2019-05-20T21:12:16.668Z,5.27
2019-05-20T21:14:47.230Z,5.33
2019-05-20T21:17:17.802Z,4.83
2019-05-20T21:19:48.357Z,4.20
2019-05-20T21:22:18.987Z,4.77
2019-05-20T21:24:51.153Z,5.10
2019-05-20T21:27:21.718Z,4.53
2019-05-20T21:29:52.450Z,5.00
2019-05-20T21:32:22.999Z,5.00
2019-05-20T21:34:53.584Z,4.67
2019-05-20T21:37:24.164Z,5.90
2019-05-20T21:39:54.792Z,6.03
2019-05-20T21:42:25.352Z,6.10
2019-05-20T21:44:55.926Z,6.90
2019-05-20T21:47:26.506Z,6.10
2019-05-20T21:49:57.062Z,5.60
2019-05-20T21:52:27.640Z,5.53
2019-05-20T21:54:58.221Z,4.93
2019-05-20T21:57:28.851Z,4.30
2019-05-20T21:59:59.458Z,3.83
2019-05-20T22:02:30.129Z,4.47
2019-05-20T22:05:00.669Z,3.97
2019-05-20T22:07:31.513Z,4.10
2019-05-20T22:10:02.191Z,4.10
2019-05-20T22:12:34.403Z,4.47
2019-05-20T22:15:07.022Z,4.20
2019-05-20T22:17:37.616Z,5.17
2019-05-20T22:20:08.326Z,7.70
2019-05-20T22:22:48.227Z,9.53
2019-05-20T22:25:18.854Z,12.30
2019-05-20T22:27:49.500Z,11.23
2019-05-20T22:30:20.106Z,12.80
2019-05-20T22:32:50.851Z,13.57
2019-05-20T22:35:21.430Z,11.47
2019-05-20T22:37:52.165Z,12.20
2019-05-20T22:40:22.803Z,11.30
2019-05-20T22:42:53.406Z,11.80
2019-05-20T22:45:24.047Z,12.37
2019-05-20T22:47:54.731Z,9.20
2019-05-20T22:50:25.304Z,8.07
2019-05-20T22:52:56.194Z,7.50
2019-05-20T22:55:26.714Z,6.90
2019-05-20T22:57:57.434Z,7.10
2019-05-20T23:00:28.017Z,7.03
2019-05-20T23:02:59.966Z,6.53
2019-05-20T23:05:30.754Z,6.90
2019-05-20T23:08:01.410Z,6.37
2019-05-20T23:10:32.074Z,6.47
2019-05-20T23:13:02.929Z,6.00
2019-05-20T23:15:33.636Z,6.33
2019-05-20T23:18:04.295Z,6.30
2019-05-20T23:20:34.972Z,6.27
2019-05-20T23:23:05.717Z,6.27
2019-05-20T23:25:36.484Z,6.70
2019-05-20T23:28:07.279Z,6.20
2019-05-20T23:30:38.012Z,6.50
2019-05-20T23:33:08.733Z,8.00
2019-05-20T23:35:39.394Z,5.97
2019-05-20T23:38:09.932Z,6.40
2019-05-20T23:40:40.493Z,5.90
2019-05-20T23:43:11.169Z,5.83
2019-05-20T23:45:41.965Z,6.43
2019-05-20T23:48:13.509Z,23.77
2019-05-20T23:50:44.067Z,8.50
2019-05-20T23:53:14.624Z,6.23
2019-05-20T23:55:45.657Z,6.40
2019-05-20T23:58:16.214Z,6.30
